St Petersburg Clearwater International Airport
KPIE : now visible

Airfield :











YOU CAN JOIN US ON...

 
LOGIN :

Register | Disclaimer

   EN    FR    IT 

 









Legend :    VFR   Marginal VFR   IFR   Intensive IFR   Very Intensive IFR
Visi :
Ceiling :
>= 8 km
>= 3000ft
5 to 8 km
1000 to 3000 ft
1500m to 5 km
500 to 1000 ft
800 to 1500m
200 to 500 ft
< 800m
< 200 ft
Symbols :   Thunderstorms  Fog  Heavy snow  Heavy precipitations  Wind > 20 kt







- Airport Elevation : 11 ft
- IATA code : PIE


KPIE - St Petersburg Clearwater International

CURRENT METAR :
  • 210953Z AUTO 10004KT 10SM CLR 24/23 A3004 RMK AO2 SLP173 T02440228

EXPIRED METARs :
  • 210853Z AUTO 11006KT 10SM CLR 24/23 A3004 RMK AO2 SLP171 T02440228 55001
  • 210753Z AUTO 10007KT 10SM CLR 25/23 A3004 RMK AO2 SLP171 T02500228

TAF KPIE
Valid from the 21 at 06:00 until the 22 at 06:00 UTC


210539Z 2106/2206 VRB05KT P6SM FEW030 BKN200
FM211500 12007KT P6SM SCT030 SCT200
FM211800 06007KT P6SM VCTS SCT030CB BKN200
FM212100 32007KT 6SM SHRA VCTS SCT030CB BKN100 OVC200
FM220200 VRB04KT P6SM FEW030 BKN250
KZMA FIR / North America



MET'MAP, your aeronautical weather chart ! - Copyright ORBIFLY December 2007 - Disclaimer

ORBIFLY MET'MAP TEAM :

Programming & Development : Alexandra Zaïnal
Concept & Development : Baudouin d'Aumeries
Co-Development & Prog : Marc-Olivier Méhu
Technical & hardware support : Manuel Goepfert

Contact : metmap@orbifly.com




SOURCES & CREDITS :

   NOAA       Earth
Advisory